createdAt,value
2018-06-11T00:02:15.820Z,23.60
2018-06-11T00:04:44.323Z,23.50
2018-06-11T00:07:12.561Z,23.60
2018-06-11T00:09:40.820Z,23.60
2018-06-11T00:12:09.835Z,23.60
2018-06-11T00:14:38.079Z,23.60
2018-06-11T00:17:06.607Z,23.60
2018-06-11T00:19:34.870Z,23.60
2018-06-11T00:22:03.115Z,23.50
2018-06-11T00:24:32.384Z,23.40
2018-06-11T00:27:00.635Z,23.40
2018-06-11T00:29:28.883Z,23.30
2018-06-11T00:31:57.135Z,23.30
2018-06-11T00:34:26.142Z,23.50
2018-06-11T00:36:55.166Z,23.40
2018-06-11T00:39:23.419Z,23.40
2018-06-11T00:41:51.665Z,23.50
2018-06-11T00:44:19.920Z,23.40
2018-06-11T00:46:48.175Z,23.30
2018-06-11T00:49:16.434Z,23.30
2018-06-11T00:51:44.675Z,23.40
2018-06-11T00:54:13.693Z,23.50
2018-06-11T00:56:41.947Z,23.50
2018-06-11T00:59:10.957Z,23.20
2018-06-11T01:01:39.303Z,23.20
2018-06-11T01:04:07.510Z,23.10
2018-06-11T01:06:35.773Z,23.10
2018-06-11T01:09:04.025Z,23.10
2018-06-11T01:11:32.297Z,23.10
2018-06-11T01:14:00.553Z,23.20
2018-06-11T01:16:28.805Z,23.20
2018-06-11T01:18:57.065Z,23.10
2018-06-11T01:21:25.307Z,23.10
2018-06-11T01:23:54.336Z,23.20
2018-06-11T01:26:22.571Z,23.20
2018-06-11T01:28:51.600Z,23.20
2018-06-11T01:31:19.955Z,23.20
2018-06-11T01:33:48.987Z,23.20
2018-06-11T01:36:17.305Z,23.20
2018-06-11T01:38:45.518Z,23.20
2018-06-11T01:41:13.755Z,23.20
2018-06-11T01:43:42.018Z,23.20
2018-06-11T01:46:10.255Z,23.30
2018-06-11T01:48:38.499Z,23.30
2018-06-11T01:51:06.755Z,23.20
2018-06-11T01:53:35.786Z,23.20
2018-06-11T01:56:04.059Z,23.20
2018-06-11T01:58:32.311Z,23.30
2018-06-11T02:01:01.427Z,23.30
2018-06-11T02:03:29.676Z,23.30
2018-06-11T02:05:58.838Z,23.30
2018-06-11T02:08:27.091Z,23.30
2018-06-11T02:10:55.344Z,23.20
2018-06-11T02:13:23.598Z,23.20
2018-06-11T02:15:52.655Z,23.20
2018-06-11T02:18:21.009Z,23.20
2018-06-11T02:20:49.255Z,23.20
2018-06-11T02:23:17.500Z,23.10
2018-06-11T02:25:45.755Z,23.10
2018-06-11T02:28:14.006Z,22.90
2018-06-11T02:30:42.266Z,22.90
2018-06-11T02:33:10.522Z,22.90
2018-06-11T02:35:39.535Z,22.80
2018-06-11T02:38:07.789Z,22.80
2018-06-11T02:40:36.799Z,22.70
2018-06-11T02:43:05.064Z,22.70
2018-06-11T02:45:33.315Z,22.60
2018-06-11T02:48:02.343Z,22.40
2018-06-11T02:50:30.584Z,22.50
2018-06-11T02:52:59.606Z,22.60
2018-06-11T02:55:27.871Z,22.60
2018-06-11T02:57:56.114Z,22.60
2018-06-11T03:00:24.362Z,22.70
2018-06-11T03:02:52.616Z,22.80
2018-06-11T03:05:20.971Z,22.80
2018-06-11T03:07:49.228Z,22.80
2018-06-11T03:10:18.500Z,22.90
2018-06-11T03:12:46.742Z,22.90
2018-06-11T03:15:14.993Z,22.90
2018-06-11T03:17:44.319Z,22.90
2018-06-11T03:20:12.559Z,22.90
2018-06-11T03:22:41.578Z,22.90
2018-06-11T03:25:09.839Z,22.90
2018-06-11T03:27:38.090Z,22.90
2018-06-11T03:30:07.110Z,22.80
2018-06-11T03:32:35.369Z,22.80
2018-06-11T03:35:04.394Z,22.80
2018-06-11T03:37:32.651Z,22.80
2018-06-11T03:40:00.903Z,22.70
2018-06-11T03:42:29.937Z,22.70
2018-06-11T03:44:58.179Z,22.70
2018-06-11T03:47:27.207Z,22.60
2018-06-11T03:49:55.455Z,22.60
2018-06-11T03:52:23.715Z,22.60
2018-06-11T03:54:52.727Z,22.60
2018-06-11T03:57:20.985Z,22.60
2018-06-11T03:59:50.013Z,22.60
2018-06-11T04:02:18.264Z,22.60
2018-06-11T04:04:46.522Z,22.60
2018-06-11T04:07:15.540Z,22.60
2018-06-11T04:09:43.902Z,22.60
2018-06-11T04:12:12.919Z,22.50
2018-06-11T04:14:41.211Z,22.60
2018-06-11T04:17:09.471Z,22.50
2018-06-11T04:19:37.719Z,22.50
2018-06-11T04:22:06.742Z,22.40
2018-06-11T04:24:35.003Z,22.50
2018-06-11T04:27:03.262Z,22.40
2018-06-11T04:29:32.276Z,22.50
2018-06-11T04:32:01.153Z,22.50
2018-06-11T04:34:30.160Z,22.50
2018-06-11T04:36:58.411Z,22.50
2018-06-11T04:39:27.435Z,22.60
2018-06-11T04:41:55.776Z,22.60
2018-06-11T04:44:24.490Z,22.60
2018-06-11T04:46:52.738Z,22.60
2018-06-11T04:49:21.775Z,22.70
2018-06-11T04:51:50.016Z,22.70
2018-06-11T04:54:18.263Z,22.70
2018-06-11T04:56:46.523Z,22.70
2018-06-11T04:59:14.775Z,22.60
2018-06-11T05:01:43.018Z,22.60
2018-06-11T05:04:11.275Z,22.70
2018-06-11T05:06:40.291Z,22.70
2018-06-11T05:09:08.663Z,22.70
2018-06-11T05:11:36.914Z,22.70
2018-06-11T05:14:05.154Z,22.70
2018-06-11T05:16:33.414Z,22.80
2018-06-11T05:19:01.673Z,22.70
2018-06-11T05:21:29.934Z,22.60
2018-06-11T05:23:58.182Z,22.60
2018-06-11T05:26:27.202Z,22.70
2018-06-11T05:28:55.465Z,22.70
2018-06-11T05:31:24.474Z,22.80
2018-06-11T05:33:52.850Z,22.80
2018-06-11T05:36:21.107Z,22.90
2018-06-11T05:38:50.123Z,23.10
2018-06-11T05:41:18.391Z,23.10
2018-06-11T05:43:46.639Z,23.10
2018-06-11T05:48:49.507Z,23.20
2018-06-11T05:51:18.877Z,23.30
2018-06-11T05:53:47.137Z,23.40
2018-06-11T05:56:15.375Z,23.40
2018-06-11T05:58:43.635Z,23.50
2018-06-11T06:01:11.891Z,23.50
2018-06-11T06:03:40.150Z,23.50
2018-06-11T06:06:08.439Z,23.50
2018-06-11T06:08:37.417Z,23.70
2018-06-11T06:11:05.678Z,23.60
2018-06-11T06:13:33.947Z,23.70
2018-06-11T06:16:02.976Z,23.80
2018-06-11T06:18:31.235Z,23.70
2018-06-11T06:20:59.486Z,23.70
2018-06-11T06:23:28.514Z,23.70
2018-06-11T06:25:56.768Z,23.70
2018-06-11T06:28:25.027Z,23.80
2018-06-11T06:30:54.063Z,23.70
2018-06-11T06:33:22.563Z,23.70
2018-06-11T06:35:50.814Z,23.70
2018-06-11T06:38:19.071Z,23.80
2018-06-11T06:40:48.099Z,24.00
2018-06-11T06:43:16.363Z,24.00
2018-06-11T06:45:44.612Z,24.10
2018-06-11T06:48:12.864Z,24.00
2018-06-11T06:50:41.888Z,23.90
2018-06-11T06:53:10.208Z,23.90
2018-06-11T06:55:38.443Z,24.00
2018-06-11T06:58:07.310Z,24.10
2018-06-11T07:00:35.574Z,24.00
2018-06-11T07:03:04.595Z,24.40
2018-06-11T07:05:33.047Z,24.30
2018-06-11T07:08:02.072Z,24.40
2018-06-11T07:10:30.648Z,24.40
2018-06-11T07:12:58.913Z,24.50
2018-06-11T07:15:27.918Z,24.80
2018-06-11T07:17:56.179Z,24.70
2018-06-11T07:20:24.445Z,24.80
2018-06-11T07:22:52.818Z,24.90
2018-06-11T07:25:21.832Z,24.90
2018-06-11T07:27:50.095Z,24.90
2018-06-11T07:30:18.356Z,24.90
2018-06-11T07:32:47.387Z,25.10
2018-06-11T07:35:15.639Z,25.10
2018-06-11T07:37:43.898Z,25.20
2018-06-11T07:40:12.922Z,25.30
2018-06-11T07:42:41.184Z,25.20
2018-06-11T07:45:09.469Z,25.30
2018-06-11T07:47:37.720Z,25.30
2018-06-11T07:50:06.755Z,25.30
2018-06-11T07:52:35.017Z,25.30
2018-06-11T07:55:03.300Z,25.20
2018-06-11T07:57:31.563Z,25.20
2018-06-11T07:59:59.835Z,25.00
2018-06-11T08:02:28.084Z,25.10
2018-06-11T08:04:57.124Z,25.20
2018-06-11T08:07:25.442Z,25.10
2018-06-11T08:09:53.658Z,25.00
2018-06-11T08:12:21.913Z,24.90
2018-06-11T08:14:50.151Z,24.70
2018-06-11T08:17:18.579Z,24.60
2018-06-11T08:19:46.829Z,24.60
2018-06-11T08:22:15.864Z,24.80
2018-06-11T08:24:44.122Z,24.80
2018-06-11T08:27:12.602Z,24.80
2018-06-11T08:29:40.864Z,25.00
2018-06-11T08:32:09.119Z,24.90
2018-06-11T08:34:38.145Z,25.10
2018-06-11T08:37:06.394Z,25.10
2018-06-11T08:39:35.420Z,25.50
2018-06-11T08:42:03.662Z,25.50
2018-06-11T08:44:32.715Z,25.70
2018-06-11T08:47:00.957Z,25.70
2018-06-11T08:49:29.212Z,25.80
2018-06-11T08:51:57.487Z,26.00
2018-06-11T08:54:26.502Z,26.40
2018-06-11T08:56:54.759Z,26.40
2018-06-11T08:59:23.022Z,26.50
2018-06-11T09:01:52.040Z,26.60
2018-06-11T09:04:20.305Z,26.60
2018-06-11T09:06:48.553Z,26.80
2018-06-11T09:09:17.582Z,27.20
2018-06-11T09:11:45.833Z,27.20
2018-06-11T09:14:14.170Z,27.30
2018-06-11T09:16:42.427Z,27.40
2018-06-11T09:19:10.679Z,27.50
2018-06-11T09:21:38.937Z,27.60
2018-06-11T09:24:07.251Z,27.90
2018-06-11T09:26:35.765Z,28.00
2018-06-11T09:29:04.023Z,28.00
2018-06-11T09:31:32.277Z,28.10
2018-06-11T09:34:00.799Z,28.10
2018-06-11T09:36:29.044Z,28.30
2018-06-11T09:38:57.282Z,28.30
2018-06-11T09:41:25.557Z,28.20
2018-06-11T09:43:54.664Z,28.10
2018-06-11T09:46:22.818Z,28.10
2018-06-11T09:48:51.091Z,28.30
2018-06-11T09:51:20.181Z,28.00
2018-06-11T09:53:49.211Z,27.90
2018-06-11T09:56:17.483Z,27.90
2018-06-11T09:58:45.734Z,28.00
2018-06-11T10:01:14.104Z,28.30
2018-06-11T10:03:43.209Z,28.50
2018-06-11T10:06:11.386Z,28.50
2018-06-11T10:08:39.643Z,28.40
2018-06-11T10:11:08.675Z,28.70
2018-06-11T10:13:37.279Z,28.70
2018-06-11T10:16:05.517Z,28.90
2018-06-11T10:18:33.781Z,28.60
2018-06-11T10:21:02.032Z,28.70
2018-06-11T10:23:31.071Z,29.00
2018-06-11T10:25:59.330Z,29.00
2018-06-11T10:28:27.609Z,29.10
2018-06-11T10:30:55.914Z,29.10
2018-06-11T10:33:24.955Z,28.80
2018-06-11T10:35:54.001Z,28.70
2018-06-11T10:38:23.046Z,28.60
2018-06-11T10:40:52.047Z,28.40
2018-06-11T10:43:20.383Z,28.40
2018-06-11T10:45:48.647Z,28.20
2018-06-11T10:48:16.900Z,28.30
2018-06-11T10:50:45.162Z,28.50
2018-06-11T10:53:13.427Z,28.40
2018-06-11T10:55:41.715Z,28.50
2018-06-11T10:58:10.291Z,28.70
2018-06-11T11:00:38.547Z,28.90
2018-06-11T11:03:07.559Z,29.30
2018-06-11T11:05:35.827Z,29.30
2018-06-11T11:08:04.076Z,29.50
2018-06-11T11:10:32.332Z,29.70
2018-06-11T11:13:00.579Z,29.40
2018-06-11T11:15:28.844Z,29.60
2018-06-11T11:17:57.086Z,29.90
2018-06-11T11:20:26.112Z,30.20
2018-06-11T11:22:54.524Z,30.10
2018-06-11T11:25:22.767Z,30.10
2018-06-11T11:27:51.025Z,30.10
2018-06-11T11:30:19.290Z,30.10
2018-06-11T11:32:47.557Z,30.10
2018-06-11T11:35:16.561Z,30.00
2018-06-11T11:37:44.822Z,30.00
2018-06-11T11:40:13.858Z,30.00
2018-06-11T11:42:42.099Z,30.00
2018-06-11T11:45:10.366Z,29.80
2018-06-11T11:47:39.391Z,29.70
2018-06-11T11:50:07.871Z,29.70
2018-06-11T11:52:36.124Z,29.50
2018-06-11T11:55:04.372Z,29.40
2018-06-11T11:57:32.902Z,29.30
2018-06-11T12:00:01.153Z,29.40
2018-06-11T12:02:29.426Z,29.50
2018-06-11T12:04:57.671Z,29.60
2018-06-11T12:07:26.084Z,29.70
2018-06-11T12:09:54.343Z,29.90
2018-06-11T12:12:23.358Z,30.30
2018-06-11T12:14:51.611Z,30.20
2018-06-11T12:17:20.645Z,30.40
2018-06-11T12:19:48.891Z,30.40
2018-06-11T12:22:17.139Z,30.40
2018-06-11T12:24:45.419Z,30.40
2018-06-11T12:27:13.658Z,30.40
2018-06-11T12:29:42.675Z,30.70
2018-06-11T12:32:10.964Z,30.60
2018-06-11T12:34:39.984Z,30.90
2018-06-11T12:37:08.231Z,30.90
2018-06-11T12:39:36.562Z,30.90
2018-06-11T12:42:04.797Z,30.90
2018-06-11T12:44:33.051Z,30.90
2018-06-11T12:47:01.317Z,30.80
2018-06-11T12:49:29.566Z,30.80
2018-06-11T12:51:57.860Z,30.60
2018-06-11T12:54:26.876Z,30.60
2018-06-11T12:56:55.912Z,30.60
2018-06-11T12:59:24.489Z,30.60
2018-06-11T13:01:52.731Z,30.70
2018-06-11T13:04:21.776Z,30.80
2018-06-11T13:06:50.344Z,30.80
2018-06-11T13:09:18.591Z,30.90
2018-06-11T13:11:47.622Z,30.70
2018-06-11T13:14:15.871Z,30.70
2018-06-11T13:16:44.151Z,30.60
2018-06-11T13:19:12.422Z,30.50
2018-06-11T13:21:40.684Z,30.30
2018-06-11T13:24:08.951Z,30.30
2018-06-11T13:26:37.979Z,30.00
2018-06-11T13:29:06.228Z,30.00
2018-06-11T13:31:34.497Z,29.90
2018-06-11T13:34:03.540Z,29.80
2018-06-11T13:36:31.792Z,29.70
2018-06-11T13:39:00.048Z,29.70
2018-06-11T13:41:29.098Z,29.50
2018-06-11T13:43:57.346Z,29.40
2018-06-11T13:46:25.620Z,29.40
2018-06-11T13:48:53.868Z,29.30
2018-06-11T13:51:22.235Z,29.20
2018-06-11T13:53:50.483Z,29.20
2018-06-11T13:56:18.730Z,29.10
2018-06-11T13:58:47.792Z,29.00
2018-06-11T14:01:16.075Z,28.80
2018-06-11T14:03:45.108Z,28.80
2018-06-11T14:06:13.365Z,28.80
2018-06-11T14:08:41.788Z,28.80
2018-06-11T14:11:10.020Z,28.80
2018-06-11T14:13:38.279Z,28.50
2018-06-11T14:16:06.528Z,28.40
2018-06-11T14:18:34.850Z,28.20
2018-06-11T14:21:03.213Z,28.10
2018-06-11T14:23:31.717Z,28.00
2018-06-11T14:26:00.023Z,28.00
2018-06-11T14:28:29.293Z,27.70
2018-06-11T14:30:57.629Z,27.80
2018-06-11T14:33:26.691Z,26.90
2018-06-11T14:35:55.791Z,26.70
2018-06-11T14:38:24.054Z,26.70
2018-06-11T14:40:52.326Z,26.30
2018-06-11T14:43:21.362Z,25.80
2018-06-11T14:45:49.623Z,25.80
2018-06-11T14:48:17.998Z,25.50
2018-06-11T14:50:46.266Z,25.10
2018-06-11T14:53:15.290Z,24.80
2018-06-11T14:55:43.564Z,24.80
2018-06-11T14:58:11.929Z,24.70
2018-06-11T15:00:40.092Z,24.60
2018-06-11T15:03:09.121Z,24.50
2018-06-11T15:05:37.384Z,24.50
2018-06-11T15:08:05.927Z,24.60
2018-06-11T15:10:34.938Z,24.80
2018-06-11T15:13:03.189Z,24.70
2018-06-11T15:15:32.246Z,24.80
2018-06-11T15:18:00.490Z,24.80
2018-06-11T15:20:28.788Z,24.80
2018-06-11T15:22:57.036Z,24.70
2018-06-11T15:25:25.303Z,24.50
2018-06-11T15:27:54.322Z,24.20
2018-06-11T15:30:22.624Z,24.20
2018-06-11T15:32:50.898Z,24.00
2018-06-11T15:35:19.147Z,24.10
2018-06-11T15:37:47.420Z,24.00
2018-06-11T15:40:15.701Z,24.00
2018-06-11T15:42:44.261Z,24.10
2018-06-11T15:45:12.537Z,24.20
2018-06-11T15:47:40.849Z,24.10
2018-06-11T15:50:09.199Z,24.00
2018-06-11T15:52:37.440Z,24.00
2018-06-11T15:55:06.479Z,24.00
2018-06-11T15:57:34.773Z,23.90
2018-06-11T16:00:03.174Z,24.00
2018-06-11T16:02:32.277Z,24.00
2018-06-11T16:05:00.552Z,24.00
2018-06-11T16:07:28.838Z,24.00
2018-06-11T16:09:57.847Z,23.80
2018-06-11T16:12:26.114Z,23.80
2018-06-11T16:14:54.390Z,23.80
2018-06-11T16:17:23.499Z,23.80
2018-06-11T16:19:51.786Z,23.80
2018-06-11T16:22:20.344Z,23.80
2018-06-11T16:24:48.609Z,23.70
2018-06-11T16:27:17.643Z,23.80
2018-06-11T16:29:45.895Z,23.80
2018-06-11T16:32:14.928Z,23.70
2018-06-11T16:34:43.175Z,23.70
2018-06-11T16:37:11.470Z,23.60
2018-06-11T16:39:39.740Z,23.50
2018-06-11T16:42:07.983Z,23.60
2018-06-11T16:44:36.282Z,23.50
2018-06-11T16:47:04.549Z,23.50
2018-06-11T16:49:32.883Z,23.30
2018-06-11T16:52:01.936Z,23.30
2018-06-11T16:54:30.180Z,23.20
2018-06-11T16:56:58.449Z,23.30
2018-06-11T16:59:26.715Z,23.40
2018-06-11T17:01:55.611Z,23.20
2018-06-11T17:04:24.645Z,22.90
2018-06-11T17:06:53.646Z,22.80
2018-06-11T17:09:21.925Z,22.80
2018-06-11T17:11:50.184Z,22.90
2018-06-11T17:14:18.451Z,22.90
2018-06-11T17:16:46.704Z,22.90
2018-06-11T17:19:14.991Z,23.00
2018-06-11T17:21:43.251Z,23.00
2018-06-11T17:24:11.522Z,23.00
2018-06-11T17:26:39.932Z,23.10
2018-06-11T17:29:08.227Z,23.10
2018-06-11T17:31:36.490Z,23.00
2018-06-11T17:34:04.769Z,23.00
2018-06-11T17:36:33.191Z,23.00
2018-06-11T17:39:02.212Z,23.10
2018-06-11T17:41:30.475Z,23.10
2018-06-11T17:43:58.738Z,23.20
2018-06-11T17:46:27.743Z,23.10
2018-06-11T17:48:56.020Z,23.10
2018-06-11T17:51:24.360Z,23.10
2018-06-11T17:53:53.430Z,23.30
2018-06-11T17:56:21.671Z,23.20
2018-06-11T17:58:49.915Z,23.30
2018-06-11T18:01:18.947Z,23.40
2018-06-11T18:03:47.202Z,23.40
2018-06-11T18:06:15.492Z,23.40
2018-06-11T18:08:44.506Z,23.50
2018-06-11T18:11:12.768Z,23.40
2018-06-11T18:13:41.268Z,23.40
2018-06-11T18:16:09.554Z,23.40
2018-06-11T18:18:37.820Z,23.50
2018-06-11T18:21:06.095Z,23.50
2018-06-11T18:23:34.392Z,23.40
2018-06-11T18:26:03.071Z,23.40
2018-06-11T18:28:31.317Z,23.40
2018-06-11T18:30:59.691Z,23.30
2018-06-11T18:33:27.938Z,23.40
2018-06-11T18:35:56.972Z,23.40
2018-06-11T18:38:25.223Z,23.30
2018-06-11T18:40:53.498Z,23.40
2018-06-11T18:43:21.747Z,23.10
2018-06-11T18:45:50.779Z,23.20
2018-06-11T18:48:19.106Z,23.20
2018-06-11T18:50:47.311Z,23.20
2018-06-11T18:53:15.547Z,23.10
2018-06-11T18:55:44.594Z,23.00
2018-06-11T18:58:12.839Z,23.00
2018-06-11T19:00:41.118Z,23.10
2018-06-11T19:03:09.378Z,23.00
2018-06-11T19:05:38.492Z,22.90
2018-06-11T19:08:07.507Z,23.00
2018-06-11T19:10:35.782Z,23.00
2018-06-11T19:13:04.016Z,23.10
2018-06-11T19:15:33.047Z,23.10
2018-06-11T19:18:01.309Z,23.00
2018-06-11T19:20:29.574Z,23.10
2018-06-11T19:22:57.844Z,23.00
2018-06-11T19:25:26.226Z,23.00
2018-06-11T19:27:55.267Z,23.00
2018-06-11T19:30:23.540Z,23.00
2018-06-11T19:32:51.787Z,23.10
2018-06-11T19:35:20.120Z,23.00
2018-06-11T19:37:48.318Z,23.00
2018-06-11T19:40:17.380Z,23.10
2018-06-11T19:42:45.637Z,23.10
2018-06-11T19:45:13.918Z,23.00
2018-06-11T19:47:42.238Z,23.00
2018-06-11T19:50:10.639Z,23.00
2018-06-11T19:52:38.797Z,23.00
2018-06-11T19:55:07.075Z,23.00
2018-06-11T19:57:35.363Z,23.00
2018-06-11T20:00:03.691Z,22.90
2018-06-11T20:02:31.941Z,22.90
2018-06-11T20:05:00.192Z,22.90
2018-06-11T20:07:28.446Z,22.80
2018-06-11T20:09:56.711Z,22.90
2018-06-11T20:12:24.975Z,22.80
2018-06-11T20:14:54.009Z,22.90
2018-06-11T20:17:23.711Z,22.90
2018-06-11T20:19:52.016Z,22.80
2018-06-11T20:22:20.329Z,22.90
2018-06-11T20:24:49.344Z,22.90
2018-06-11T20:27:17.621Z,22.90
2018-06-11T20:29:46.684Z,22.90
2018-06-11T20:32:15.699Z,22.90
2018-06-11T20:34:44.023Z,22.90
2018-06-11T20:37:12.239Z,23.00
2018-06-11T20:39:41.263Z,23.10
2018-06-11T20:42:09.527Z,23.10
2018-06-11T20:44:37.837Z,23.10
2018-06-11T20:47:06.342Z,23.10
2018-06-11T20:49:34.615Z,23.10
2018-06-11T20:52:02.868Z,23.10
2018-06-11T20:54:31.134Z,23.00
2018-06-11T20:56:59.393Z,23.00
2018-06-11T20:59:27.635Z,23.00
2018-06-11T21:01:56.780Z,22.90
2018-06-11T21:04:25.020Z,22.90
2018-06-11T21:06:54.013Z,22.90
2018-06-11T21:09:22.278Z,22.90
2018-06-11T21:11:50.550Z,22.90
2018-06-11T21:14:19.583Z,23.00
2018-06-11T21:16:47.858Z,23.00
2018-06-11T21:19:16.867Z,22.80
2018-06-11T21:21:45.133Z,22.80
2018-06-11T21:24:13.417Z,22.90
2018-06-11T21:26:41.754Z,22.80
2018-06-11T21:29:09.992Z,22.80
2018-06-11T21:31:38.257Z,22.80
2018-06-11T21:34:06.512Z,22.70
2018-06-11T21:36:34.772Z,22.70
2018-06-11T21:39:03.041Z,22.70
2018-06-11T21:41:31.291Z,22.70
2018-06-11T21:43:59.549Z,22.60
2018-06-11T21:46:28.572Z,22.70
2018-06-11T21:48:56.844Z,22.60
2018-06-11T21:51:25.101Z,22.70
2018-06-11T21:53:54.116Z,22.70
2018-06-11T21:56:22.384Z,22.70
2018-06-11T21:58:50.643Z,22.70
2018-06-11T22:01:18.918Z,22.80
2018-06-11T22:03:47.964Z,22.70
2018-06-11T22:06:16.301Z,22.70
2018-06-11T22:08:44.567Z,22.70
2018-06-11T22:11:12.824Z,22.70
2018-06-11T22:13:41.873Z,22.70
2018-06-11T22:16:10.124Z,22.70
2018-06-11T22:18:38.366Z,22.70
2018-06-11T22:21:07.407Z,22.70
2018-06-11T22:23:35.690Z,22.70
2018-06-11T22:26:03.949Z,22.70
2018-06-11T22:28:32.221Z,22.80
2018-06-11T22:31:00.470Z,22.80
2018-06-11T22:33:29.511Z,22.80
2018-06-11T22:35:57.772Z,22.80
2018-06-11T22:38:26.033Z,22.80
2018-06-11T22:40:54.283Z,22.80
2018-06-11T22:43:23.424Z,22.80
2018-06-11T22:45:51.680Z,22.80
2018-06-11T22:48:19.936Z,22.80
2018-06-11T22:50:48.198Z,22.70
2018-06-11T22:53:17.215Z,22.70
2018-06-11T22:55:45.472Z,22.70
2018-06-11T22:58:14.484Z,22.80
2018-06-11T23:00:42.734Z,22.80
2018-06-11T23:03:11.781Z,22.70
2018-06-11T23:05:40.019Z,22.70
2018-06-11T23:08:08.274Z,22.70
2018-06-11T23:10:36.535Z,22.70
2018-06-11T23:13:04.785Z,22.70
2018-06-11T23:15:33.062Z,22.70
2018-06-11T23:18:01.330Z,22.70
2018-06-11T23:20:29.620Z,22.60
2018-06-11T23:22:57.876Z,22.60
2018-06-11T23:25:26.166Z,22.70
2018-06-11T23:27:54.423Z,22.60
2018-06-11T23:30:22.685Z,22.60
2018-06-11T23:32:50.950Z,22.60
2018-06-11T23:35:19.228Z,22.60
2018-06-11T23:37:47.702Z,22.60
2018-06-11T23:40:15.955Z,22.60
2018-06-11T23:42:44.969Z,22.70
2018-06-11T23:45:13.236Z,22.70
2018-06-11T23:47:41.496Z,22.70
2018-06-11T23:50:10.544Z,22.60
2018-06-11T23:52:38.799Z,22.60
2018-06-11T23:55:07.051Z,22.60
2018-06-11T23:57:36.099Z,22.60
